Coin, Iowa
Current Conditions -  °F | °C
As of 7:35 AM on Sunday 21 Dec 2014 (Local Time) from KICL Reporting Station
Overcast Overcast  
Wind Chill: 29°   Ceiling: 1000
Heat Index: 37°   Visibility: 8mi
Dew Point: 36°   Wind: 14mph
Humidity: 93%   Direction: 170°S
Pressure: 29.98"   Gusts: NA
Location:  40.65°N, 95.23°W
Report Text: KICL 211335Z AUTO 17012KT 8SM OVC010 03/02 A2998 RMK AO2
Loading
Personal Weather Stations






























Interactive Weather Map New forecast layout! Learn more

10-Day Weather Forecast

Advertisements
Track Severe Weather on mobile